Time;durP1;ratioP1;P1;durP2;ratioP2;P2;SDS_P1;SDS_P2;PMS_P1;PMS_P2;Temp;Humidity;BMP_temperature;BMP_pressure;BME280_temperature;BME280_humidity;BME280_pressure;Samples;Min_cycle;Max_cycle;Signal;HPM_P1;HPM_P2
2023/09/22 00:00:38;;;;;;;7.15;2.30;;;20.10;99.90;;;;;;5044634;28;20025;-75
2023/09/22 00:03:05;;;;;;;4.18;1.70;;;20.10;99.90;;;;;;5043120;28;20116;-76
2023/09/22 00:05:31;;;;;;;3.92;1.75;;;20.10;99.90;;;;;;5042256;28;20018;-76
2023/09/22 00:07:56;;;;;;;5.63;1.98;;;20.10;99.90;;;;;;5045456;28;20013;-75
2023/09/22 00:10:22;;;;;;;4.32;2.15;;;20.20;99.90;;;;;;5029270;28;20029;-76
2023/09/22 00:12:48;;;;;;;4.32;1.75;;;20.10;99.90;;;;;;5040765;28;20512;-75
2023/09/22 00:15:14;;;;;;;2.95;2.08;;;20.10;99.90;;;;;;5044693;28;20025;-76
2023/09/22 00:17:40;;;;;;;5.22;2.25;;;20.10;99.90;;;;;;5039976;28;20119;-75
2023/09/22 00:20:08;;;;;;;4.88;1.77;;;20.10;99.90;;;;;;5032661;28;20458;-75
2023/09/22 00:22:34;;;;;;;4.15;2.00;;;20.10;99.90;;;;;;5037558;28;20481;-75
2023/09/22 00:25:00;;;;;;;2.92;2.45;;;20.10;99.90;;;;;;5046276;28;20024;-75
2023/09/22 00:27:26;;;;;;;4.15;1.75;;;20.20;99.90;;;;;;5048730;28;20119;-75
2023/09/22 00:29:52;;;;;;;3.85;2.30;;;20.10;99.90;;;;;;5048625;28;20158;-75
2023/09/22 00:32:17;;;;;;;2.65;1.98;;;20.20;99.90;;;;;;5035426;28;20392;-75
2023/09/22 00:34:43;;;;;;;4.45;2.15;;;20.10;99.90;;;;;;5038615;28;20025;-75
2023/09/22 00:37:09;;;;;;;4.50;2.50;;;20.10;99.90;;;;;;5041053;28;20025;-76
2023/09/22 00:39:35;;;;;;;5.65;2.28;;;20.10;99.90;;;;;;5033257;28;20484;-75
2023/09/22 00:42:08;;;;;;;3.88;2.33;;;20.10;99.90;;;;;;5019140;28;20033;-76
2023/09/22 00:44:34;;;;;;;4.47;2.20;;;20.10;99.90;;;;;;5039071;28;20370;-76
2023/09/22 00:47:00;;;;;;;6.63;2.53;;;20.00;99.90;;;;;;5045622;28;20021;-76
2023/09/22 00:49:26;;;;;;;6.65;3.08;;;20.00;99.90;;;;;;5022455;28;20101;-75
2023/09/22 00:51:53;;;;;;;8.13;2.60;;;20.00;99.90;;;;;;5039058;28;20436;-76
2023/09/22 00:54:19;;;;;;;4.88;2.70;;;19.90;99.90;;;;;;5045307;28;20026;-75
2023/09/22 00:56:46;;;;;;;4.68;3.00;;;19.90;99.90;;;;;;5038423;28;20044;-76
2023/09/22 00:59:15;;;;;;;5.45;2.55;;;19.90;99.90;;;;;;5045818;28;20439;-75
2023/09/22 01:01:45;;;;;;;11.07;2.70;;;19.90;99.90;;;;;;5044569;28;20025;-75
2023/09/22 01:04:14;;;;;;;3.55;2.70;;;19.90;99.90;;;;;;5048618;28;20034;-75
2023/09/22 01:06:43;;;;;;;7.80;3.22;;;19.90;99.90;;;;;;5034762;28;20159;-75
2023/09/22 01:09:09;;;;;;;6.57;3.33;;;19.90;99.90;;;;;;5042918;28;20029;-75
2023/09/22 01:11:35;;;;;;;5.20;3.30;;;19.80;99.90;;;;;;5052311;28;20021;-74
2023/09/22 01:14:02;;;;;;;6.68;3.90;;;19.80;99.90;;;;;;5040888;28;20024;-75
2023/09/22 01:16:32;;;;;;;6.47;3.33;;;19.80;99.90;;;;;;5024755;28;20028;-76
2023/09/22 01:18:58;;;;;;;9.65;3.65;;;19.70;99.90;;;;;;5043312;28;20029;-75
2023/09/22 01:21:28;;;;;;;10.80;3.50;;;19.70;99.90;;;;;;5023292;28;20032;-76
2023/09/22 01:23:54;;;;;;;7.25;3.28;;;19.60;99.90;;;;;;5041321;28;20393;-75
2023/09/22 01:26:21;;;;;;;7.10;3.60;;;19.70;99.90;;;;;;5044504;28;20021;-76
2023/09/22 01:28:47;;;;;;;7.70;3.47;;;19.70;99.90;;;;;;5037882;28;20428;-75
2023/09/22 01:31:13;;;;;;;10.25;3.40;;;19.70;99.90;;;;;;5044362;28;20284;-75
2023/09/22 01:33:39;;;;;;;6.10;3.33;;;19.70;99.90;;;;;;5022709;28;20033;-75
2023/09/22 01:36:05;;;;;;;5.07;3.42;;;19.70;99.90;;;;;;5031800;28;20112;-75
2023/09/22 01:38:31;;;;;;;6.32;3.95;;;19.70;99.90;;;;;;5042870;28;20108;-75
2023/09/22 01:40:58;;;;;;;9.90;3.53;;;19.70;99.90;;;;;;5040575;28;20389;-75
2023/09/22 01:43:24;;;;;;;4.90;4.40;;;19.60;99.90;;;;;;5041898;28;20025;-75
2023/09/22 01:45:50;;;;;;;6.35;4.25;;;19.60;99.90;;;;;;5042752;28;20435;-75
2023/09/22 01:48:16;;;;;;;8.50;4.38;;;19.60;99.90;;;;;;5040262;28;20029;-75
2023/09/22 01:50:42;;;;;;;5.85;4.13;;;19.70;99.90;;;;;;5041953;28;20028;-76
2023/09/22 01:53:11;;;;;;;5.60;4.13;;;19.70;99.90;;;;;;5030367;28;20075;-75
2023/09/22 01:55:41;;;;;;;6.07;4.38;;;19.70;99.90;;;;;;5040688;28;20036;-75
2023/09/22 01:58:08;;;;;;;6.97;3.60;;;19.70;99.90;;;;;;5039091;28;20045;-75
2023/09/22 02:00:35;;;;;;;7.32;3.50;;;19.80;99.90;;;;;;5042772;28;20025;-75
2023/09/22 02:03:01;;;;;;;11.02;3.47;;;19.70;99.90;;;;;;5041145;28;20028;-75
2023/09/22 02:05:27;;;;;;;8.10;4.35;;;19.70;99.90;;;;;;5040292;28;20108;-75
2023/09/22 02:07:53;;;;;;;6.03;3.05;;;19.80;99.90;;;;;;5042864;28;20017;-75
2023/09/22 02:10:18;;;;;;;5.53;3.63;;;19.70;99.90;;;;;;5040665;28;20025;-76
2023/09/22 02:12:44;;;;;;;4.25;3.40;;;19.70;99.90;;;;;;5039982;28;20022;-76
2023/09/22 02:15:12;;;;;;;5.05;2.92;;;19.60;99.90;;;;;;5042674;28;20086;-76
2023/09/22 02:17:44;;;;;;;4.35;2.97;;;19.60;99.90;;;;;;5043504;28;20564;-75
2023/09/22 02:22:47;;;;;;;3.50;2.45;;;19.50;99.90;;;;;;5041803;28;19909;-76
2023/09/22 02:25:13;;;;;;;5.55;3.00;;;19.50;99.90;;;;;;5027297;28;20104;-76
2023/09/22 02:27:40;;;;;;;5.55;3.17;;;19.50;99.90;;;;;;5044501;28;20021;-76
2023/09/22 02:30:08;;;;;;;7.53;3.00;;;19.60;99.90;;;;;;5039897;28;20040;-76
2023/09/22 02:32:34;;;;;;;8.75;3.38;;;19.60;99.90;;;;;;5031599;28;20447;-76
2023/09/22 02:35:00;;;;;;;12.10;3.67;;;19.60;99.90;;;;;;5041547;28;20117;-76
2023/09/22 02:37:26;;;;;;;8.40;3.53;;;19.50;99.90;;;;;;5039846;28;20104;-77
2023/09/22 02:39:51;;;;;;;9.85;3.53;;;19.40;99.90;;;;;;5041802;28;20029;-76
2023/09/22 02:42:17;;;;;;;5.75;3.80;;;19.50;99.90;;;;;;5041346;28;20454;-76
2023/09/22 02:44:42;;;;;;;6.35;3.53;;;19.50;99.90;;;;;;5029900;28;20505;-76
2023/09/22 02:47:08;;;;;;;6.57;3.22;;;19.40;99.90;;;;;;5042182;28;20032;-76
2023/09/22 02:49:34;;;;;;;4.40;3.78;;;19.40;99.90;;;;;;5023576;28;20124;-76
2023/09/22 02:51:59;;;;;;;9.98;3.10;;;19.40;99.90;;;;;;5029870;28;20485;-76
2023/09/22 02:54:25;;;;;;;4.82;3.55;;;19.30;99.90;;;;;;5031419;28;20033;-77
2023/09/22 02:56:51;;;;;;;5.55;3.30;;;19.30;99.90;;;;;;5042380;28;20078;-76
2023/09/22 02:59:19;;;;;;;4.68;3.05;;;19.30;99.90;;;;;;5038300;28;20081;-77
2023/09/22 03:01:44;;;;;;;8.20;3.65;;;19.20;99.90;;;;;;5044345;28;20017;-77
2023/09/22 03:04:10;;;;;;;5.55;3.20;;;19.10;99.90;;;;;;5040931;28;20086;-77
2023/09/22 03:06:37;;;;;;;5.47;3.00;;;19.10;99.90;;;;;;5039579;28;20098;-77
2023/09/22 03:09:06;;;;;;;6.75;3.03;;;19.00;99.90;;;;;;5041688;28;20070;-77
2023/09/22 03:11:33;;;;;;;7.28;3.08;;;19.00;99.90;;;;;;5041660;28;20025;-78
2023/09/22 03:13:59;;;;;;;6.30;3.13;;;18.90;99.90;;;;;;5030086;28;20045;-78
2023/09/22 03:16:27;;;;;;;4.43;3.03;;;18.90;99.90;;;;;;5040969;28;20029;-77
2023/09/22 03:18:52;;;;;;;10.25;3.40;;;18.90;99.90;;;;;;5041792;28;20029;-77
2023/09/22 03:21:22;;;;;;;8.55;3.05;;;18.90;99.90;;;;;;5039097;28;20374;-78
2023/09/22 03:23:54;;;;;;;6.20;3.42;;;18.80;99.90;;;;;;5044856;28;20021;-78
2023/09/22 03:26:21;;;;;;;7.18;3.13;;;18.80;99.90;;;;;;5043268;28;20393;-77
2023/09/22 03:28:48;;;;;;;5.72;2.90;;;18.80;99.90;;;;;;5041830;28;20536;-78
2023/09/22 03:31:16;;;;;;;6.43;3.22;;;18.80;99.90;;;;;;5027670;28;20065;-78
2023/09/22 03:33:45;;;;;;;5.68;3.28;;;18.80;99.90;;;;;;5043372;28;20017;-77
2023/09/22 03:36:12;;;;;;;4.53;2.90;;;18.80;99.90;;;;;;5042942;28;20104;-77
2023/09/22 03:38:40;;;;;;;4.85;3.15;;;18.80;99.90;;;;;;5042822;28;20381;-78
2023/09/22 03:41:06;;;;;;;4.07;3.38;;;18.80;99.90;;;;;;5043800;28;20021;-76
2023/09/22 03:43:33;;;;;;;6.07;3.17;;;18.80;99.90;;;;;;5035727;28;20021;-76
2023/09/22 03:45:58;;;;;;;7.07;3.35;;;18.80;99.90;;;;;;5043059;28;20028;-78
2023/09/22 03:48:24;;;;;;;6.78;2.92;;;18.80;99.90;;;;;;5043468;28;20026;-78
2023/09/22 03:50:50;;;;;;;5.18;3.25;;;18.80;99.90;;;;;;5045257;28;20497;-77
2023/09/22 03:53:16;;;;;;;6.00;3.20;;;18.80;99.90;;;;;;5034298;28;20025;-78
2023/09/22 03:55:44;;;;;;;4.32;2.92;;;18.70;99.90;;;;;;5045171;28;20030;-78
2023/09/22 03:58:10;;;;;;;8.68;3.55;;;18.70;99.90;;;;;;5045655;28;20061;-78
2023/09/22 04:00:36;;;;;;;3.20;2.90;;;18.70;99.90;;;;;;5033798;28;20021;-78
2023/09/22 04:03:04;;;;;;;5.63;3.03;;;18.60;99.90;;;;;;5043910;28;20039;-78
2023/09/22 04:05:29;;;;;;;5.47;3.47;;;18.60;99.90;;;;;;5042114;28;20013;-78
2023/09/22 04:07:57;;;;;;;4.28;3.25;;;18.60;99.90;;;;;;5042325;28;20377;-77
2023/09/22 04:10:23;;;;;;;5.32;2.83;;;18.60;99.90;;;;;;5032209;28;20404;-77
2023/09/22 04:12:50;;;;;;;7.00;3.10;;;18.60;99.90;;;;;;5044632;28;20028;-78
2023/09/22 04:15:16;;;;;;;6.97;3.25;;;18.60;99.90;;;;;;5032455;28;20116;-77
2023/09/22 04:17:42;;;;;;;6.30;3.35;;;18.60;99.90;;;;;;5044389;28;20159;-77
2023/09/22 04:20:10;;;;;;;7.45;3.22;;;18.60;99.90;;;;;;5041801;28;20021;-78
2023/09/22 04:22:37;;;;;;;8.25;3.38;;;18.60;99.90;;;;;;5045654;28;20028;-78
2023/09/22 04:25:10;;;;;;;3.75;3.00;;;18.60;99.90;;;;;;5033533;28;20109;-78
2023/09/22 04:27:42;;;;;;;4.93;3.50;;;18.60;99.90;;;;;;5043247;28;20076;-79
2023/09/22 04:30:11;;;;;;;4.28;3.28;;;18.60;99.90;;;;;;5034167;28;20111;-79
2023/09/22 04:32:37;;;;;;;4.60;3.58;;;18.50;99.90;;;;;;5042546;28;20461;-79
2023/09/22 04:35:09;;;;;;;3.60;3.28;;;18.50;99.90;;;;;;5041269;28;20030;-79
2023/09/22 04:37:35;;;;;;;7.65;3.53;;;18.50;99.90;;;;;;5032951;28;20056;-80
2023/09/22 04:40:23;;;;;;;8.52;3.78;;;18.50;99.90;;;;;;5031643;28;20028;-80
2023/09/22 04:42:49;;;;;;;4.60;3.20;;;18.50;99.90;;;;;;5022888;28;20029;-80
2023/09/22 04:45:18;;;;;;;2.97;2.75;;;18.40;99.90;;;;;;5033377;28;20025;-80
2023/09/22 04:47:46;;;;;;;3.50;2.92;;;18.40;99.90;;;;;;5025532;28;20076;-80
2023/09/22 04:50:15;;;;;;;5.25;2.97;;;18.40;99.90;;;;;;5041162;28;20021;-80
2023/09/22 04:52:41;;;;;;;4.75;2.97;;;18.40;99.90;;;;;;5032131;28;20029;-80
2023/09/22 04:55:07;;;;;;;7.25;3.03;;;18.40;99.90;;;;;;5031279;28;20025;-81
2023/09/22 04:57:33;;;;;;;4.13;3.15;;;18.40;99.90;;;;;;5034490;28;20480;-81
2023/09/22 04:59:58;;;;;;;4.20;2.92;;;18.40;99.90;;;;;;5033928;28;20044;-80
2023/09/22 05:02:24;;;;;;;6.55;3.30;;;18.40;99.90;;;;;;5053687;28;20388;-82
2023/09/22 05:04:50;;;;;;;5.80;2.88;;;18.40;99.90;;;;;;5049684;28;20031;-82
2023/09/22 05:07:16;;;;;;;3.72;2.97;;;18.40;99.90;;;;;;5034951;28;20515;-81
2023/09/22 05:09:43;;;;;;;6.63;3.92;;;18.50;99.90;;;;;;5028704;28;20017;-81
2023/09/22 05:12:09;;;;;;;3.88;3.47;;;18.50;99.90;;;;;;5026410;28;20033;-81
2023/09/22 05:14:35;;;;;;;3.95;2.88;;;18.50;99.90;;;;;;5048823;28;20013;-81
2023/09/22 05:17:01;;;;;;;6.75;3.50;;;18.50;99.90;;;;;;5026845;28;20021;-81
2023/09/22 05:19:27;;;;;;;7.15;3.42;;;18.60;99.90;;;;;;5027840;28;20079;-81
2023/09/22 05:21:52;;;;;;;9.95;3.30;;;18.50;99.90;;;;;;5048419;28;20021;-81
2023/09/22 05:24:18;;;;;;;5.50;3.38;;;18.60;99.90;;;;;;5041757;28;20018;-81
2023/09/22 05:26:44;;;;;;;4.88;3.30;;;18.60;99.90;;;;;;5025305;28;20389;-81
2023/09/22 05:29:10;;;;;;;3.45;3.13;;;18.60;99.90;;;;;;5045846;28;20017;-81
2023/09/22 05:31:36;;;;;;;7.88;2.80;;;18.50;99.90;;;;;;5031944;28;20159;-82
2023/09/22 05:34:04;;;;;;;5.50;3.10;;;18.60;99.90;;;;;;5025493;28;20642;-81
2023/09/22 05:36:30;;;;;;;6.53;3.67;;;18.50;99.90;;;;;;5041707;28;20021;-82
2023/09/22 05:38:59;;;;;;;5.30;3.15;;;18.50;99.90;;;;;;5029978;28;20219;-83
2023/09/22 05:41:25;;;;;;;5.15;2.78;;;18.40;99.90;;;;;;5035235;28;20385;-83
2023/09/22 05:43:54;;;;;;;5.47;3.00;;;18.40;99.90;;;;;;5031738;28;20026;-82
2023/09/22 05:46:20;;;;;;;6.72;2.95;;;18.40;99.90;;;;;;5038932;28;20013;-86
2023/09/22 05:48:46;;;;;;;6.15;3.28;;;18.40;99.90;;;;;;5033025;28;20128;-84
2023/09/22 05:51:12;;;;;;;7.78;2.97;;;18.40;99.90;;;;;;5039571;28;20028;-84
2023/09/22 05:53:38;;;;;;;6.90;3.17;;;18.40;99.90;;;;;;5038812;28;20028;-85
2023/09/22 05:56:09;;;;;;;6.90;2.72;;;18.40;99.90;;;;;;5030230;28;20103;-86
2023/09/22 05:58:35;;;;;;;5.72;3.00;;;18.40;99.90;;;;;;5030453;28;20099;-87
2023/09/22 06:01:08;;;;;;;3.30;2.92;;;18.40;99.90;;;;;;5043834;28;20025;-87
2023/09/22 06:03:38;;;;;;;5.95;3.33;;;18.30;99.90;;;;;;5030885;28;20036;-89
2023/09/22 06:06:08;;;;;;;5.90;3.67;;;18.30;99.90;;;;;;5033033;28;20026;-89
2023/09/22 06:08:36;;;;;;;8.18;3.63;;;18.30;99.90;;;;;;5040929;28;20045;-88
2023/09/22 06:11:03;;;;;;;4.95;2.95;;;18.30;99.90;;;;;;5044253;28;20032;-87
2023/09/22 06:13:29;;;;;;;4.13;2.83;;;18.20;99.90;;;;;;5042759;28;20116;-85
2023/09/22 06:15:55;;;;;;;3.50;3.20;;;18.20;99.90;;;;;;5024892;28;20449;-85
2023/09/22 06:18:21;;;;;;;3.20;2.63;;;18.20;99.90;;;;;;5031510;28;20029;-85
2023/09/22 06:20:47;;;;;;;6.88;3.58;;;18.10;99.90;;;;;;5030941;28;20397;-86
2023/09/22 06:23:13;;;;;;;5.32;3.17;;;18.10;99.90;;;;;;5033971;28;20088;-85
2023/09/22 06:25:38;;;;;;;4.20;2.97;;;18.10;99.90;;;;;;5018818;28;20028;-85
2023/09/22 06:28:05;;;;;;;4.65;2.83;;;18.20;99.90;;;;;;5034871;28;20473;-84
2023/09/22 06:30:34;;;;;;;5.60;3.10;;;18.20;99.90;;;;;;5048359;28;20064;-84
2023/09/22 06:33:03;;;;;;;5.65;2.97;;;18.20;99.90;;;;;;5030794;28;20028;-84
2023/09/22 06:35:29;;;;;;;4.38;3.20;;;18.10;99.90;;;;;;5047534;28;20029;-83
2023/09/22 06:37:54;;;;;;;5.30;2.95;;;18.20;99.90;;;;;;5019655;28;20032;-82
2023/09/22 06:40:20;;;;;;;7.22;3.17;;;18.20;99.90;;;;;;5030028;28;20178;-84
2023/09/22 06:42:46;;;;;;;6.85;2.85;;;18.20;99.90;;;;;;5034077;28;20028;-84
2023/09/22 06:45:12;;;;;;;4.90;2.78;;;18.20;99.90;;;;;;5021826;28;20076;-84
2023/09/22 06:47:38;;;;;;;3.40;2.72;;;18.20;99.90;;;;;;5034546;28;20021;-83
2023/09/22 06:50:07;;;;;;;3.83;3.00;;;18.20;99.90;;;;;;5033998;28;20025;-85
2023/09/22 06:52:33;;;;;;;3.03;2.58;;;18.20;99.90;;;;;;5027560;28;20036;-83
2023/09/22 06:55:02;;;;;;;4.85;3.03;;;18.20;99.90;;;;;;5030573;28;20041;-84
2023/09/22 06:57:29;;;;;;;4.00;3.10;;;18.30;99.90;;;;;;5024255;28;20044;-80
2023/09/22 06:59:55;;;;;;;6.00;2.70;;;18.30;99.90;;;;;;5040945;28;20609;-84
2023/09/22 07:02:22;;;;;;;4.00;3.05;;;18.30;99.90;;;;;;5037294;28;20024;-82
2023/09/22 07:04:47;;;;;;;5.00;3.20;;;18.30;99.90;;;;;;5033149;28;20475;-83
2023/09/22 07:07:13;;;;;;;6.30;2.83;;;18.30;99.90;;;;;;5035596;28;20032;-80
2023/09/22 07:09:43;;;;;;;5.05;3.28;;;18.30;99.90;;;;;;5032072;28;20065;-81
2023/09/22 07:12:09;;;;;;;5.55;3.05;;;18.40;99.90;;;;;;5042687;28;20029;-82
2023/09/22 07:14:34;;;;;;;4.60;3.05;;;18.40;99.90;;;;;;5031878;28;20075;-82
2023/09/22 07:17:00;;;;;;;6.18;2.95;;;18.40;99.90;;;;;;5015662;28;20488;-82
2023/09/22 07:19:26;;;;;;;4.18;2.63;;;18.40;99.90;;;;;;5050520;28;20754;-82
2023/09/22 07:21:52;;;;;;;7.22;3.10;;;18.50;99.90;;;;;;5031854;28;20025;-83
2023/09/22 07:24:18;;;;;;;3.42;2.70;;;18.40;99.90;;;;;;5017333;28;20025;-83
2023/09/22 07:26:44;;;;;;;4.82;2.80;;;18.40;99.90;;;;;;5035698;28;20074;-83
2023/09/22 07:29:09;;;;;;;6.32;3.22;;;18.40;99.90;;;;;;5035215;28;20120;-81
2023/09/22 07:31:37;;;;;;;7.60;2.85;;;18.50;99.90;;;;;;5034743;28;20129;-83
2023/09/22 07:34:03;;;;;;;3.33;2.85;;;18.50;99.90;;;;;;5036691;28;20107;-83
2023/09/22 07:36:28;;;;;;;8.43;3.55;;;18.40;99.90;;;;;;5032914;28;20100;-83
2023/09/22 07:38:54;;;;;;;9.82;3.47;;;18.50;99.90;;;;;;5036012;28;20052;-83
2023/09/22 07:41:20;;;;;;;5.32;2.92;;;18.50;99.90;;;;;;5029984;28;20029;-83
2023/09/22 07:43:46;;;;;;;5.13;2.80;;;18.40;99.90;;;;;;5034660;28;20424;-83
2023/09/22 07:46:11;;;;;;;5.03;2.88;;;18.50;99.90;;;;;;5031353;28;20113;-83
2023/09/22 07:48:37;;;;;;;5.57;2.95;;;18.50;99.90;;;;;;5030251;28;20031;-83
2023/09/22 07:51:04;;;;;;;4.03;3.08;;;18.50;99.90;;;;;;5031922;28;20025;-84
2023/09/22 07:53:31;;;;;;;5.03;3.20;;;18.60;99.90;;;;;;5026953;28;20358;-83
2023/09/22 07:55:59;;;;;;;4.63;2.72;;;18.50;99.90;;;;;;5020951;28;20447;-82
2023/09/22 07:58:26;;;;;;;9.93;3.03;;;18.60;99.90;;;;;;5027746;28;20068;-85
2023/09/22 08:00:53;;;;;;;5.32;3.00;;;18.60;99.90;;;;;;5035436;28;20481;-87
2023/09/22 08:03:20;;;;;;;4.55;3.25;;;18.60;99.90;;;;;;5027755;28;20017;-86
2023/09/22 08:05:48;;;;;;;3.58;3.17;;;18.70;99.90;;;;;;5030336;28;20029;-85
2023/09/22 08:08:15;;;;;;;6.45;3.65;;;18.70;99.90;;;;;;5017942;28;20145;-86
2023/09/22 08:10:41;;;;;;;4.30;3.20;;;18.70;99.90;;;;;;5026605;28;20029;-84
2023/09/22 08:13:07;;;;;;;4.40;3.30;;;18.70;99.90;;;;;;5019338;28;20458;-83
2023/09/22 08:15:34;;;;;;;5.28;3.28;;;18.70;99.90;;;;;;5027059;28;20116;-83
2023/09/22 08:18:05;;;;;;;4.50;3.00;;;18.70;99.90;;;;;;5020739;28;20033;-83
2023/09/22 08:20:35;;;;;;;7.38;3.60;;;18.80;99.90;;;;;;5037187;28;20084;-83
2023/09/22 08:23:01;;;;;;;4.70;3.38;;;18.80;99.90;;;;;;5040532;28;20103;-83
2023/09/22 08:25:27;;;;;;;4.70;3.72;;;18.80;99.90;;;;;;5029839;28;20469;-83
2023/09/22 08:27:53;;;;;;;5.88;3.40;;;18.80;99.90;;;;;;5025750;28;20021;-83
2023/09/22 08:30:19;;;;;;;7.03;3.58;;;18.80;99.90;;;;;;5030737;28;20078;-82
2023/09/22 08:32:46;;;;;;;3.92;3.30;;;18.80;99.90;;;;;;5037396;28;20021;-83
2023/09/22 08:35:13;;;;;;;5.18;3.53;;;18.80;99.90;;;;;;5021041;28;20029;-81
2023/09/22 08:37:43;;;;;;;6.70;4.30;;;18.90;99.90;;;;;;5039745;28;20108;-82
2023/09/22 08:40:15;;;;;;;6.85;3.70;;;19.00;99.90;;;;;;5028902;28;20045;-81
2023/09/22 08:42:44;;;;;;;8.75;4.05;;;19.00;99.90;;;;;;5038641;28;20473;-82
2023/09/22 08:45:11;;;;;;;5.63;4.13;;;19.10;99.90;;;;;;5038995;28;20108;-81
2023/09/22 08:47:42;;;;;;;8.95;5.03;;;19.20;99.90;;;;;;5021042;28;20025;-82
2023/09/22 08:50:18;;;;;;;5.47;4.60;;;19.20;99.90;;;;;;5021592;28;20021;-81
2023/09/22 08:52:46;;;;;;;11.25;4.53;;;19.30;99.90;;;;;;5023267;28;20264;-85
2023/09/22 08:55:13;;;;;;;6.07;3.85;;;19.40;99.90;;;;;;5030184;28;20038;-84
2023/09/22 08:57:44;;;;;;;7.82;3.80;;;19.30;99.90;;;;;;5020037;28;20029;-84
2023/09/22 09:00:27;;;;;;;6.25;3.63;;;19.30;99.90;;;;;;5013101;28;20025;-84
2023/09/22 09:02:57;;;;;;;4.90;3.50;;;19.40;99.90;;;;;;5024428;28;20086;-86
2023/09/22 09:05:29;;;;;;;3.95;3.50;;;19.30;99.90;;;;;;5036334;28;20448;-87
2023/09/22 09:07:56;;;;;;;;;;;19.40;99.90;;;;;;5028268;28;20041;-86
2023/09/22 09:10:32;;;;;;;11.73;4.38;;;19.40;99.90;;;;;;5022481;28;19924;-86
2023/09/22 09:13:02;;;;;;;9.25;3.97;;;19.30;99.90;;;;;;5035818;28;20025;-87
2023/09/22 09:15:29;;;;;;;9.93;4.13;;;19.30;99.90;;;;;;5026396;28;20087;-83
2023/09/22 09:18:11;;;;;;;12.23;4.50;;;19.30;99.90;;;;;;5016712;28;20025;-83
2023/09/22 09:20:40;;;;;;;8.57;3.72;;;19.30;99.90;;;;;;5025086;28;20557;-84
2023/09/22 09:23:20;;;;;;;8.80;3.95;;;19.30;99.90;;;;;;5026821;28;20036;-82
2023/09/22 09:25:49;;;;;;;5.68;4.55;;;19.30;99.90;;;;;;5034058;28;20477;-82
2023/09/22 09:28:19;;;;;;;7.68;4.05;;;19.30;99.90;;;;;;5025277;28;20124;-82
2023/09/22 09:30:49;;;;;;;6.47;4.55;;;19.30;99.90;;;;;;5036058;28;20075;-83
2023/09/22 09:33:16;;;;;;;7.55;4.22;;;19.40;99.90;;;;;;5025940;28;20041;-84
2023/09/22 09:35:43;;;;;;;9.40;4.28;;;19.40;99.90;;;;;;5038808;28;20021;-85
2023/09/22 09:38:09;;;;;;;7.75;4.65;;;19.40;99.90;;;;;;5029951;28;20120;-84
2023/09/22 09:40:38;;;;;;;6.38;4.07;;;19.50;99.90;;;;;;5030414;28;20374;-85
2023/09/22 09:43:12;;;;;;;7.32;4.30;;;19.50;99.90;;;;;;5031918;28;20032;-84
2023/09/22 09:45:58;;;;;;;8.50;3.95;;;19.60;99.90;;;;;;5033526;28;20025;-85
2023/09/22 09:48:25;;;;;;;9.15;3.75;;;19.60;99.90;;;;;;5031863;28;20056;-85
2023/09/22 09:50:59;;;;;;;11.00;4.18;;;19.60;99.90;;;;;;5021880;28;20151;-84
2023/09/22 09:53:37;;;;;;;10.23;3.78;;;19.60;99.90;;;;;;5029967;28;20033;-83
2023/09/22 09:56:05;;;;;;;7.20;4.03;;;19.60;99.90;;;;;;5029607;28;20120;-84
2023/09/22 09:58:35;;;;;;;8.25;4.50;;;19.60;99.90;;;;;;5025313;28;20049;-84
2023/09/22 10:01:05;;;;;;;7.05;4.13;;;19.60;99.90;;;;;;5031576;28;20029;-84
2023/09/22 10:03:33;;;;;;;8.52;4.05;;;19.60;99.90;;;;;;5011998;28;20053;-84
2023/09/22 10:06:02;;;;;;;8.05;4.15;;;19.60;99.90;;;;;;5019416;28;20032;-84
2023/09/22 10:08:28;;;;;;;5.57;4.05;;;19.60;99.90;;;;;;5020458;28;20401;-83
2023/09/22 10:11:01;;;;;;;6.68;3.63;;;19.60;99.90;;;;;;5019325;28;20041;-84
2023/09/22 10:13:27;;;;;;;5.43;4.28;;;19.60;99.90;;;;;;5020097;28;20053;-84
2023/09/22 10:15:56;;;;;;;9.82;4.03;;;19.60;99.90;;;;;;5021368;28;20175;-84
2023/09/22 10:18:23;;;;;;;7.72;4.20;;;19.60;99.90;;;;;;5024428;28;20029;-85
2023/09/22 10:20:49;;;;;;;7.78;4.53;;;19.60;99.90;;;;;;5032713;28;20481;-85
2023/09/22 10:23:19;;;;;;;8.32;4.78;;;19.60;99.90;;;;;;5032591;28;20052;-87
2023/09/22 10:26:14;;;;;;;8.43;5.13;;;19.60;99.90;;;;;;5045497;28;20021;-86
2023/09/22 10:28:40;;;;;;;8.70;4.45;;;19.70;99.90;;;;;;5039044;28;20021;-85
2023/09/22 10:31:06;;;;;;;7.88;4.78;;;19.70;99.90;;;;;;5042209;28;20036;-83
2023/09/22 10:33:32;;;;;;;5.65;4.03;;;19.70;99.90;;;;;;5043924;28;20022;-82
2023/09/22 10:36:04;;;;;;;7.28;4.55;;;19.80;99.90;;;;;;5035370;28;20121;-82
2023/09/22 10:38:29;;;;;;;7.00;4.10;;;19.80;99.90;;;;;;5036420;28;20027;-82
2023/09/22 10:40:58;;;;;;;10.10;4.45;;;19.90;99.90;;;;;;5043878;28;20100;-82
2023/09/22 10:43:25;;;;;;;5.75;4.50;;;19.90;99.90;;;;;;5034075;28;20076;-82
2023/09/22 10:45:51;;;;;;;5.90;4.28;;;19.90;99.90;;;;;;5046360;28;20027;-81
2023/09/22 10:48:18;;;;;;;4.70;4.15;;;19.90;99.90;;;;;;5035589;28;20075;-82
2023/09/22 10:50:53;;;;;;;9.90;4.15;;;19.90;99.90;;;;;;5044155;28;20063;-82
2023/09/22 10:53:20;;;;;;;9.15;3.85;;;19.80;99.90;;;;;;5026603;28;20447;-82
2023/09/22 10:55:46;;;;;;;3.85;3.38;;;19.90;99.90;;;;;;5026116;28;20108;-81
2023/09/22 10:58:18;;;;;;;7.28;3.97;;;19.90;99.90;;;;;;5030963;28;20148;-82
2023/09/22 11:01:07;;;;;;;6.10;3.90;;;19.90;99.90;;;;;;5044271;28;20090;-82
2023/09/22 11:03:33;;;;;;;9.73;4.68;;;19.90;99.90;;;;;;5027108;28;20116;-81
2023/09/22 11:06:08;;;;;;;5.72;4.20;;;19.90;99.90;;;;;;5035679;28;20104;-83
2023/09/22 11:08:34;;;;;;;5.63;3.90;;;19.90;99.90;;;;;;5045858;28;20021;-83
2023/09/22 11:11:01;;;;;;;5.80;3.97;;;19.90;99.90;;;;;;5033451;28;20108;-82
2023/09/22 11:13:27;;;;;;;4.75;3.53;;;19.90;99.90;;;;;;5026721;28;20026;-82
2023/09/22 11:15:56;;;;;;;5.07;3.92;;;20.00;99.90;;;;;;5025395;28;20021;-83
2023/09/22 11:18:31;;;;;;;6.68;4.07;;;19.90;99.90;;;;;;5043685;28;20033;-83
2023/09/22 11:21:02;;;;;;;9.32;4.18;;;20.00;99.90;;;;;;5033453;28;20040;-83
2023/09/22 11:23:28;;;;;;;4.88;3.95;;;19.90;99.90;;;;;;5044528;28;20028;-82
2023/09/22 11:25:58;;;;;;;6.20;3.13;;;19.90;99.90;;;;;;5036543;28;20230;-83
2023/09/22 11:28:26;;;;;;;3.70;3.22;;;20.00;99.90;;;;;;5046301;28;20417;-83
2023/09/22 11:30:53;;;;;;;5.85;3.30;;;20.00;99.90;;;;;;5033273;28;20312;-82
2023/09/22 11:33:19;;;;;;;7.70;3.42;;;20.00;99.90;;;;;;5035340;28;20029;-83
2023/09/22 11:35:45;;;;;;;7.05;3.72;;;20.10;99.90;;;;;;5034222;28;20032;-83
2023/09/22 11:38:40;;;;;;;7.82;3.45;;;20.10;99.90;;;;;;5045137;28;20025;-83
2023/09/22 11:41:17;;;;;;;11.73;3.80;;;20.20;99.90;;;;;;5031676;28;20068;-83
2023/09/22 11:43:52;;;;;;;8.63;4.05;;;20.20;99.90;;;;;;5035768;28;20025;-83
2023/09/22 11:46:28;;;;;;;6.80;4.30;;;20.30;99.90;;;;;;5045392;28;20021;-83
2023/09/22 11:49:01;;;;;;;4.88;4.03;;;20.30;99.90;;;;;;5025088;28;20164;-83
2023/09/22 11:51:58;;;;;;;12.35;4.35;;;20.30;99.90;;;;;;5035721;28;20025;-84
2023/09/22 11:54:26;;;;;;;15.00;4.80;;;20.20;99.90;;;;;;5041814;28;20029;-83
2023/09/22 11:56:57;;;;;;;12.00;4.22;;;20.30;99.90;;;;;;5035914;28;20029;-84
2023/09/22 11:59:34;;;;;;;6.22;3.80;;;20.30;99.90;;;;;;5042298;28;20053;-82
2023/09/22 12:02:01;;;;;;;4.82;3.47;;;20.20;99.90;;;;;;5032674;28;20025;-83
2023/09/22 12:04:27;;;;;;;8.00;3.85;;;20.20;99.90;;;;;;5035837;28;20047;-83
2023/09/22 12:06:54;;;;;;;6.65;3.72;;;20.20;99.90;;;;;;5036679;28;20049;-83
2023/09/22 12:09:20;;;;;;;6.22;3.35;;;20.30;99.90;;;;;;5046030;28;20442;-82
2023/09/22 12:11:47;;;;;;;5.00;3.72;;;20.30;99.90;;;;;;5018839;28;20022;-83
2023/09/22 12:14:12;;;;;;;5.03;4.53;;;20.30;99.90;;;;;;5036446;28;20033;-83
2023/09/22 12:16:39;;;;;;;7.28;4.28;;;20.20;99.90;;;;;;5046881;28;20029;-82
2023/09/22 12:19:05;;;;;;;4.32;3.75;;;20.20;99.90;;;;;;5037212;28;20029;-82
2023/09/22 12:21:32;;;;;;;9.40;3.40;;;20.20;99.90;;;;;;5041550;28;20150;-82
2023/09/22 12:23:57;;;;;;;4.07;3.53;;;20.30;99.90;;;;;;5035762;28;20013;-82
2023/09/22 12:26:24;;;;;;;6.55;3.75;;;20.30;99.90;;;;;;5030248;28;20028;-82
2023/09/22 12:28:50;;;;;;;9.30;3.50;;;20.30;99.90;;;;;;5015951;28;20056;-82
2023/09/22 12:31:18;;;;;;;6.68;3.25;;;20.30;99.90;;;;;;5041979;28;20107;-82
2023/09/22 12:33:45;;;;;;;8.13;3.80;;;20.30;99.90;;;;;;5035488;28;20029;-82
2023/09/22 12:36:15;;;;;;;8.35;3.78;;;20.30;99.90;;;;;;5047458;28;20056;-81
2023/09/22 12:38:44;;;;;;;6.22;3.92;;;20.30;99.90;;;;;;5033485;28;20116;-82
2023/09/22 12:41:11;;;;;;;6.88;3.67;;;20.30;99.90;;;;;;5046395;28;20040;-82
2023/09/22 12:43:37;;;;;;;4.85;3.40;;;20.30;99.90;;;;;;5031064;28;20529;-82
2023/09/22 12:46:22;;;;;;;8.93;3.83;;;20.40;99.90;;;;;;5027322;28;20029;-82
2023/09/22 12:48:48;;;;;;;4.03;3.60;;;20.40;99.90;;;;;;5016917;28;20025;-82
2023/09/22 12:51:14;;;;;;;7.93;3.80;;;20.40;99.90;;;;;;5022953;28;20033;-82